createdAt,value
2023-01-01T00:04:08.003Z,54.65
2023-01-01T00:09:31.222Z,88.40
2023-01-01T00:14:35.261Z,81.53
2023-01-01T00:19:40.070Z,73.10
2023-01-01T00:24:44.721Z,83.18
2023-01-01T00:29:49.112Z,74.95
2023-01-01T00:34:54.233Z,71.93
2023-01-01T00:39:59.715Z,126.45
2023-01-01T00:45:03.812Z,108.35
2023-01-01T00:50:07.483Z,116.70
2023-01-01T00:55:12.424Z,123.53
2023-01-01T01:00:16.819Z,82.18
2023-01-01T01:05:21.021Z,81.22
2023-01-01T01:10:26.355Z,69.95
2023-01-01T01:15:30.402Z,56.85
2023-01-01T01:20:34.857Z,60.60
2023-01-01T01:25:40.388Z,51.58
2023-01-01T01:30:45.162Z,51.05
2023-01-01T01:35:55.607Z,49.40
2023-01-01T01:40:59.332Z,51.47
2023-01-01T01:46:11.503Z,87.65
2023-01-01T01:56:26.364Z,87.38
2023-01-01T02:01:31.348Z,82.18
2023-01-01T02:06:36.713Z,75.32
2023-01-01T02:11:40.648Z,70.70
2023-01-01T02:17:14.816Z,101.20
2023-01-01T02:22:33.677Z,93.55
2023-01-01T02:28:09.573Z,86.60
2023-01-01T02:33:21.113Z,92.63
2023-01-01T02:38:35.800Z,92.28
2023-01-01T02:43:41.136Z,93.07
2023-01-01T02:48:52.194Z,88.38
2023-01-01T02:54:33.809Z,61.13
2023-01-01T03:00:22.258Z,72.25
2023-01-01T03:06:11.644Z,73.38
2023-01-01T03:11:20.012Z,70.07
2023-01-01T03:16:35.973Z,100.05
2023-01-01T03:22:08.437Z,103.80
2023-01-01T03:27:20.260Z,95.95
2023-01-01T03:38:02.139Z,62.55
2023-01-01T03:43:20.426Z,96.93
2023-01-01T03:48:24.574Z,88.95
2023-01-01T03:53:40.566Z,62.75
2023-01-01T03:59:01.415Z,63.95
2023-01-01T04:04:06.391Z,51.78
2023-01-01T04:09:15.573Z,96.53
2023-01-01T04:14:30.509Z,98.47
2023-01-01T04:19:34.504Z,91.35
2023-01-01T04:24:39.663Z,62.88
2023-01-01T04:29:43.878Z,62.47
2023-01-01T04:34:47.434Z,81.43
2023-01-01T04:39:51.539Z,67.45
2023-01-01T04:44:55.986Z,102.15
2023-01-01T04:50:00.259Z,66.43
2023-01-01T04:55:04.507Z,63.33
2023-01-01T05:00:11.281Z,111.00
2023-01-01T05:05:15.203Z,103.90
2023-01-01T05:10:20.140Z,95.03
2023-01-01T05:15:24.135Z,65.93
2023-01-01T05:20:28.592Z,73.65
2023-01-01T05:25:32.612Z,78.15
2023-01-01T05:30:40.808Z,62.50
2023-01-01T05:35:45.315Z,86.82
2023-01-01T05:40:49.174Z,63.83
2023-01-01T05:46:04.207Z,101.68
2023-01-01T05:51:13.850Z,97.00
2023-01-01T05:56:18.301Z,104.55
2023-01-01T06:01:25.712Z,68.93
2023-01-01T06:06:33.792Z,55.83
2023-01-01T06:11:38.038Z,59.85
2023-01-01T06:16:41.621Z,50.60
2023-01-01T06:21:45.928Z,57.88
2023-01-01T06:26:50.499Z,62.97
2023-01-01T06:31:54.867Z,49.00
2023-01-01T06:37:04.747Z,58.25
2023-01-01T06:42:12.572Z,91.95
2023-01-01T06:47:17.181Z,86.85
2023-01-01T06:52:21.617Z,66.75
2023-01-01T06:57:29.143Z,60.45
2023-01-01T07:02:33.266Z,52.08
2023-01-01T07:07:38.286Z,51.90
2023-01-01T07:12:43.165Z,52.92
2023-01-01T07:17:47.301Z,43.58
2023-01-01T07:22:52.203Z,55.88
2023-01-01T07:27:56.146Z,45.38
2023-01-01T07:33:00.129Z,87.05
2023-01-01T07:38:04.365Z,54.78
2023-01-01T07:43:13.263Z,49.10
2023-01-01T07:48:17.273Z,72.60
2023-01-01T07:53:20.836Z,66.05
2023-01-01T07:58:25.694Z,66.80
2023-01-01T08:03:30.189Z,54.08
2023-01-01T08:08:35.917Z,51.00
2023-01-01T08:13:39.896Z,49.78
2023-01-01T08:18:44.218Z,56.78
2023-01-01T08:23:48.850Z,70.18
2023-01-01T08:28:57.147Z,74.13
2023-01-01T08:34:02.377Z,48.05
2023-01-01T08:39:08.231Z,63.25
2023-01-01T08:44:13.316Z,58.42
2023-01-01T08:49:17.180Z,68.18
2023-01-01T08:54:22.081Z,45.30
2023-01-01T08:59:26.328Z,48.55
2023-01-01T09:04:30.916Z,52.75
2023-01-01T09:09:34.899Z,41.33
2023-01-01T09:14:40.328Z,63.75
2023-01-01T09:19:44.818Z,57.47
2023-01-01T09:24:48.662Z,54.63
2023-01-01T09:29:53.395Z,45.00
2023-01-01T09:34:58.182Z,47.95
2023-01-01T09:40:02.487Z,51.05
2023-01-01T09:45:09.579Z,40.20
2023-01-01T09:50:21.790Z,31.20
2023-01-01T09:55:31.385Z,28.88
2023-01-01T10:00:36.412Z,24.58
2023-01-01T10:05:48.028Z,22.92
2023-01-01T10:11:20.538Z,21.42
2023-01-01T10:16:40.364Z,25.95
2023-01-01T10:21:47.440Z,22.27
2023-01-01T10:26:54.593Z,35.80
2023-01-01T10:32:06.801Z,29.85
2023-01-01T10:37:15.157Z,44.85
2023-01-01T10:42:19.758Z,45.15
2023-01-01T10:47:26.629Z,41.13
2023-01-01T10:52:36.820Z,54.65
2023-01-01T10:57:40.940Z,55.08
2023-01-01T11:02:45.431Z,53.63
2023-01-01T11:07:49.044Z,47.58
2023-01-01T11:13:10.129Z,54.00
2023-01-01T11:18:28.897Z,49.58
2023-01-01T11:23:39.484Z,55.00
2023-01-01T11:28:44.444Z,57.60
2023-01-01T11:33:55.401Z,48.50
2023-01-01T11:39:27.550Z,43.00
2023-01-01T11:44:36.096Z,41.05
2023-01-01T11:49:40.472Z,36.60
2023-01-01T11:54:47.128Z,41.08
2023-01-01T12:00:02.859Z,36.05
2023-01-01T12:05:20.707Z,45.80
2023-01-01T12:10:34.176Z,35.78
2023-01-01T12:15:45.138Z,30.77
2023-01-01T12:21:01.762Z,27.70
2023-01-01T12:26:26.700Z,31.08
2023-01-01T12:31:31.137Z,35.17
2023-01-01T12:36:37.641Z,41.40
2023-01-01T12:42:18.153Z,33.55
2023-01-01T12:47:51.175Z,44.55
2023-01-01T12:58:27.523Z,30.55
2023-01-01T13:03:37.418Z,35.83
2023-01-01T13:08:46.023Z,39.75
2023-01-01T13:13:53.848Z,42.70
2023-01-01T13:19:02.617Z,46.60
2023-01-01T13:24:22.162Z,33.05
2023-01-01T13:29:26.363Z,46.80
2023-01-01T13:35:03.455Z,46.38
2023-01-01T13:40:13.996Z,32.47
2023-01-01T13:51:47.123Z,28.70
2023-01-01T13:57:05.257Z,35.67
2023-01-01T14:02:15.250Z,33.60
2023-01-01T14:07:50.173Z,29.80
2023-01-01T14:12:53.875Z,44.28
2023-01-01T14:18:03.336Z,39.95
2023-01-01T14:23:51.011Z,34.55
2023-01-01T14:29:00.354Z,33.95
2023-01-01T14:34:16.847Z,37.72
2023-01-01T14:39:29.652Z,31.50
2023-01-01T14:44:39.559Z,27.13
2023-01-01T14:49:44.472Z,27.13
2023-01-01T14:54:48.966Z,26.90
2023-01-01T14:59:57.766Z,39.40
2023-01-01T15:05:36.002Z,39.92
2023-01-01T15:10:40.943Z,28.92
2023-01-01T15:15:47.691Z,34.58
2023-01-01T15:20:57.066Z,39.38
2023-01-01T15:26:01.382Z,43.55
2023-01-01T15:31:07.211Z,41.17
2023-01-01T15:36:10.894Z,38.13
2023-01-01T15:41:47.367Z,43.67
2023-01-01T15:46:54.623Z,41.20
2023-01-01T15:52:03.977Z,33.58
2023-01-01T15:57:22.746Z,40.28
2023-01-01T16:02:34.936Z,47.47
2023-01-01T16:07:40.618Z,42.08
2023-01-01T16:12:46.031Z,40.25
2023-01-01T16:17:50.529Z,38.30
2023-01-01T16:22:54.958Z,43.47
2023-01-01T16:28:00.552Z,38.47
2023-01-01T16:33:13.821Z,34.30
2023-01-01T16:38:20.821Z,33.17
2023-01-01T16:43:26.476Z,36.15
2023-01-01T16:48:31.035Z,35.35
2023-01-01T16:53:38.075Z,33.10
2023-01-01T16:58:55.270Z,38.88
2023-01-01T17:04:06.512Z,40.17
2023-01-01T17:09:11.286Z,45.65
2023-01-01T17:14:16.195Z,42.10
2023-01-01T17:19:21.701Z,38.97
2023-01-01T17:24:26.568Z,37.67
2023-01-01T17:29:32.705Z,34.45
2023-01-01T17:34:38.576Z,40.72
2023-01-01T17:39:45.523Z,58.42
2023-01-01T17:44:49.952Z,56.15
2023-01-01T17:49:55.368Z,71.00
2023-01-01T17:54:59.767Z,49.03
2023-01-01T18:00:03.847Z,40.53
2023-01-01T18:05:16.383Z,41.28
2023-01-01T18:10:21.176Z,30.58
